GCWP weather

Gold Coast Water Police Helicopter Landing Site
Gold Coast, Queensland, Australia

Public forecast

Using degrees Celsius for public forecast. Weather courtesy of forecast.io.

Closest aviation weather report (METAR) to Gold Coast Water Police Helicopter Landing Site

Closest report is Gold Coast Airport, 12.4 nm (22.9 km) SSE. Retrieved 2020/02/17 03:30 UTC (0 seconds ago):

YBCG 170330Z AUTO 05010KT 9999 // SCT028 29/22 Q1012 RF000/0000

Closest aviation forecast (TAF) to Gold Coast Water Police Helicopter Landing Site

Closest forecast is Gold Coast Airport, 12.4 nm (22.9 km) SSE. Retrieved 2020-02-17 00:00 UTC (3 hours ago):

TAF YBCG 162309Z 1700/1800 08012KT 9999 SCT025 FM171000 09008KT 9999 SCT020 FM171400 20005KT 9999 SCT020 FM172300 04012KT 9999 SCT025